sensor_id;sensor_type;location;lat;lon;timestamp;pressure;altitude;pressure_sealevel;temperature;humidity
81812;BME280;71243;51.848;5.768;2023-07-13T00:01:58;101439.72;;;17.15;62.20
81812;BME280;71243;51.848;5.768;2023-07-13T00:04:24;101434.69;;;17.20;62.08
81812;BME280;71243;51.848;5.768;2023-07-13T00:06:50;101437.53;;;17.18;61.96
81812;BME280;71243;51.848;5.768;2023-07-13T00:09:16;101429.91;;;17.07;62.55
81812;BME280;71243;51.848;5.768;2023-07-13T00:11:42;101429.59;;;17.10;62.41
81812;BME280;71243;51.848;5.768;2023-07-13T00:14:08;101442.13;;;17.02;62.78
81812;BME280;71243;51.848;5.768;2023-07-13T00:16:35;101449.34;;;17.01;62.39
81812;BME280;71243;51.848;5.768;2023-07-13T00:19:01;101448.06;;;16.89;62.85
81812;BME280;71243;51.848;5.768;2023-07-13T00:21:27;101445.53;;;16.88;63.09
81812;BME280;71243;51.848;5.768;2023-07-13T00:23:52;101435.22;;;16.85;63.12
81812;BME280;71243;51.848;5.768;2023-07-13T00:26:18;101436.91;;;16.78;63.51
81812;BME280;71243;51.848;5.768;2023-07-13T00:28:43;101433.91;;;16.81;63.55
81812;BME280;71243;51.848;5.768;2023-07-13T00:31:10;101430.72;;;16.85;63.39
81812;BME280;71243;51.848;5.768;2023-07-13T00:33:35;101445.06;;;16.84;63.64
81812;BME280;71243;51.848;5.768;2023-07-13T00:36:01;101437.63;;;16.72;63.99
81812;BME280;71243;51.848;5.768;2023-07-13T00:38:26;101441.47;;;16.61;64.33
81812;BME280;71243;51.848;5.768;2023-07-13T00:40:51;101453.47;;;16.65;64.32
81812;BME280;71243;51.848;5.768;2023-07-13T00:43:19;101447.59;;;16.78;63.98
81812;BME280;71243;51.848;5.768;2023-07-13T00:48:31;101436.31;;;16.68;64.45
81812;BME280;71243;51.848;5.768;2023-07-13T00:50:58;101434.97;;;16.72;64.07
81812;BME280;71243;51.848;5.768;2023-07-13T00:53:26;101438.97;;;16.68;64.11
81812;BME280;71243;51.848;5.768;2023-07-13T00:55:53;101443.66;;;16.58;64.59
81812;BME280;71243;51.848;5.768;2023-07-13T00:58:20;101448.50;;;16.54;64.74
81812;BME280;71243;51.848;5.768;2023-07-13T01:00:47;101448.03;;;16.42;65.12
81812;BME280;71243;51.848;5.768;2023-07-13T01:03:14;101446.38;;;16.33;65.24
81812;BME280;71243;51.848;5.768;2023-07-13T01:05:40;101459.22;;;16.30;65.21
81812;BME280;71243;51.848;5.768;2023-07-13T01:08:05;101460.38;;;16.35;65.22
81812;BME280;71243;51.848;5.768;2023-07-13T01:10:31;101460.41;;;16.27;65.47
81812;BME280;71243;51.848;5.768;2023-07-13T01:12:56;101462.72;;;16.30;65.39
81812;BME280;71243;51.848;5.768;2023-07-13T01:15:42;101459.25;;;16.22;65.93
81812;BME280;71243;51.848;5.768;2023-07-13T01:18:11;101459.75;;;16.25;65.91
81812;BME280;71243;51.848;5.768;2023-07-13T01:20:37;101455.94;;;16.20;65.99
81812;BME280;71243;51.848;5.768;2023-07-13T01:23:09;101455.94;;;16.20;66.41
81812;BME280;71243;51.848;5.768;2023-07-13T01:25:36;101457.09;;;16.17;66.37
81812;BME280;71243;51.848;5.768;2023-07-13T01:28:04;101457.75;;;16.19;66.41
81812;BME280;71243;51.848;5.768;2023-07-13T01:30:29;101457.41;;;16.22;66.11
81812;BME280;71243;51.848;5.768;2023-07-13T01:32:55;101461.09;;;16.13;66.72
81812;BME280;71243;51.848;5.768;2023-07-13T01:35:20;101466.28;;;15.99;66.53
81812;BME280;71243;51.848;5.768;2023-07-13T01:37:45;101468.13;;;15.90;67.20
81812;BME280;71243;51.848;5.768;2023-07-13T01:40:12;101465.78;;;15.79;67.52
81812;BME280;71243;51.848;5.768;2023-07-13T01:42:37;101462.94;;;15.81;67.88
81812;BME280;71243;51.848;5.768;2023-07-13T01:45:03;101456.66;;;15.82;67.82
81812;BME280;71243;51.848;5.768;2023-07-13T01:47:29;101454.97;;;15.89;67.42
81812;BME280;71243;51.848;5.768;2023-07-13T01:49:54;101459.81;;;15.85;67.56
81812;BME280;71243;51.848;5.768;2023-07-13T01:52:19;101454.13;;;15.88;67.61
81812;BME280;71243;51.848;5.768;2023-07-13T01:54:45;101457.28;;;15.84;68.09
81812;BME280;71243;51.848;5.768;2023-07-13T01:57:10;101448.78;;;15.80;68.46
81812;BME280;71243;51.848;5.768;2023-07-13T01:59:35;101455.81;;;15.81;68.39
81812;BME280;71243;51.848;5.768;2023-07-13T02:02:01;101457.78;;;15.79;68.43
81812;BME280;71243;51.848;5.768;2023-07-13T02:04:26;101453.31;;;15.80;68.53
81812;BME280;71243;51.848;5.768;2023-07-13T02:06:51;101444.63;;;15.86;68.30
81812;BME280;71243;51.848;5.768;2023-07-13T02:09:16;101444.31;;;15.81;68.79
81812;BME280;71243;51.848;5.768;2023-07-13T02:11:42;101454.16;;;15.64;69.21
81812;BME280;71243;51.848;5.768;2023-07-13T02:14:07;101462.28;;;15.63;69.02
81812;BME280;71243;51.848;5.768;2023-07-13T02:16:32;101461.78;;;15.67;68.90
81812;BME280;71243;51.848;5.768;2023-07-13T02:18:58;101468.47;;;15.71;68.92
81812;BME280;71243;51.848;5.768;2023-07-13T02:21:23;101467.97;;;15.76;68.65
81812;BME280;71243;51.848;5.768;2023-07-13T02:23:49;101470.09;;;15.80;68.58
81812;BME280;71243;51.848;5.768;2023-07-13T02:26:15;101462.47;;;15.85;68.59
81812;BME280;71243;51.848;5.768;2023-07-13T02:28:41;101467.28;;;15.74;69.05
81812;BME280;71243;51.848;5.768;2023-07-13T02:31:08;101477.44;;;15.62;69.72
81812;BME280;71243;51.848;5.768;2023-07-13T02:33:34;101479.59;;;15.67;69.44
81812;BME280;71243;51.848;5.768;2023-07-13T02:35:59;101474.59;;;15.72;69.33
81812;BME280;71243;51.848;5.768;2023-07-13T02:38:24;101474.94;;;15.77;69.36
81812;BME280;71243;51.848;5.768;2023-07-13T02:40:50;101473.13;;;15.69;69.68
81812;BME280;71243;51.848;5.768;2023-07-13T02:43:15;101473.28;;;15.52;70.69
81812;BME280;71243;51.848;5.768;2023-07-13T02:45:44;101469.25;;;15.56;70.12
81812;BME280;71243;51.848;5.768;2023-07-13T02:48:09;101470.28;;;15.55;69.97
81812;BME280;71243;51.848;5.768;2023-07-13T02:50:34;101470.13;;;15.48;70.54
81812;BME280;71243;51.848;5.768;2023-07-13T02:53:00;101471.94;;;15.48;70.46
81812;BME280;71243;51.848;5.768;2023-07-13T02:55:25;101476.09;;;15.58;70.11
81812;BME280;71243;51.848;5.768;2023-07-13T02:57:50;101478.59;;;15.52;70.42
81812;BME280;71243;51.848;5.768;2023-07-13T03:00:16;101479.41;;;15.44;70.73
81812;BME280;71243;51.848;5.768;2023-07-13T03:02:41;101480.44;;;15.43;70.97
81812;BME280;71243;51.848;5.768;2023-07-13T03:05:07;101484.06;;;15.42;71.35
81812;BME280;71243;51.848;5.768;2023-07-13T03:07:33;101478.09;;;15.48;71.06
81812;BME280;71243;51.848;5.768;2023-07-13T03:09:58;101480.44;;;15.43;71.05
81812;BME280;71243;51.848;5.768;2023-07-13T03:12:24;101484.75;;;15.52;70.97
81812;BME280;71243;51.848;5.768;2023-07-13T03:14:50;101480.88;;;15.38;71.40
81812;BME280;71243;51.848;5.768;2023-07-13T03:17:15;101493.50;;;15.36;71.46
81812;BME280;71243;51.848;5.768;2023-07-13T03:19:40;101494.72;;;15.42;71.18
81812;BME280;71243;51.848;5.768;2023-07-13T03:22:06;101492.16;;;15.32;72.08
81812;BME280;71243;51.848;5.768;2023-07-13T03:24:33;101494.53;;;15.35;72.04
81812;BME280;71243;51.848;5.768;2023-07-13T03:27:00;101492.06;;;15.42;71.92
81812;BME280;71243;51.848;5.768;2023-07-13T03:29:26;101499.72;;;15.45;71.67
81812;BME280;71243;51.848;5.768;2023-07-13T03:31:51;101493.06;;;15.41;72.37
81812;BME280;71243;51.848;5.768;2023-07-13T03:34:16;101495.31;;;15.36;72.57
81812;BME280;71243;51.848;5.768;2023-07-13T03:36:41;101495.31;;;15.28;73.09
81812;BME280;71243;51.848;5.768;2023-07-13T03:39:08;101490.13;;;15.10;73.84
81812;BME280;71243;51.848;5.768;2023-07-13T03:41:34;101495.94;;;15.14;73.81
81812;BME280;71243;51.848;5.768;2023-07-13T03:43:59;101495.44;;;15.10;74.17
81812;BME280;71243;51.848;5.768;2023-07-13T03:46:25;101505.25;;;15.10;74.49
81812;BME280;71243;51.848;5.768;2023-07-13T03:48:50;101509.59;;;15.11;74.17
81812;BME280;71243;51.848;5.768;2023-07-13T03:51:17;101511.59;;;15.17;73.93
81812;BME280;71243;51.848;5.768;2023-07-13T03:53:44;101514.41;;;15.15;74.01
81812;BME280;71243;51.848;5.768;2023-07-13T03:56:11;101511.75;;;15.15;73.93
81812;BME280;71243;51.848;5.768;2023-07-13T03:58:38;101512.03;;;15.04;74.38
81812;BME280;71243;51.848;5.768;2023-07-13T04:01:06;101512.22;;;15.03;74.34
81812;BME280;71243;51.848;5.768;2023-07-13T04:03:32;101505.25;;;15.10;74.12
81812;BME280;71243;51.848;5.768;2023-07-13T04:06:03;101514.25;;;15.09;74.54
81812;BME280;71243;51.848;5.768;2023-07-13T04:08:31;101519.06;;;15.13;74.37
81812;BME280;71243;51.848;5.768;2023-07-13T04:10:57;101519.91;;;15.14;74.17
81812;BME280;71243;51.848;5.768;2023-07-13T04:13:23;101519.72;;;15.07;74.86
81812;BME280;71243;51.848;5.768;2023-07-13T04:15:49;101527.53;;;15.09;74.79
81812;BME280;71243;51.848;5.768;2023-07-13T04:18:15;101526.19;;;15.05;75.02
81812;BME280;71243;51.848;5.768;2023-07-13T04:20:40;101526.19;;;15.05;74.94
81812;BME280;71243;51.848;5.768;2023-07-13T04:23:05;101535.53;;;15.17;74.59
81812;BME280;71243;51.848;5.768;2023-07-13T04:25:30;101535.38;;;15.18;74.80
81812;BME280;71243;51.848;5.768;2023-07-13T04:27:56;101532.59;;;15.20;74.92
81812;BME280;71243;51.848;5.768;2023-07-13T04:30:22;101539.22;;;15.16;75.14
81812;BME280;71243;51.848;5.768;2023-07-13T04:32:51;101533.22;;;15.22;74.73
81812;BME280;71243;51.848;5.768;2023-07-13T04:35:16;101541.91;;;15.24;74.97
81812;BME280;71243;51.848;5.768;2023-07-13T04:37:41;101536.78;;;15.30;75.00
81812;BME280;71243;51.848;5.768;2023-07-13T04:40:07;101544.28;;;15.35;74.91
81812;BME280;71243;51.848;5.768;2023-07-13T04:42:32;101545.94;;;15.36;74.76
81812;BME280;71243;51.848;5.768;2023-07-13T04:44:58;101540.28;;;15.39;75.10
81812;BME280;71243;51.848;5.768;2023-07-13T04:47:23;101546.09;;;15.34;75.06
81812;BME280;71243;51.848;5.768;2023-07-13T04:49:48;101544.09;;;15.36;75.14
81812;BME280;71243;51.848;5.768;2023-07-13T04:52:13;101543.44;;;15.34;75.53
81812;BME280;71243;51.848;5.768;2023-07-13T04:54:39;101543.78;;;15.39;75.18
81812;BME280;71243;51.848;5.768;2023-07-13T04:57:05;101551.84;;;15.48;74.69
81812;BME280;71243;51.848;5.768;2023-07-13T04:59:30;101549.59;;;15.35;75.44
81812;BME280;71243;51.848;5.768;2023-07-13T05:01:55;101556.56;;;15.36;75.68
81812;BME280;71243;51.848;5.768;2023-07-13T05:04:21;101557.91;;;15.32;75.65
81812;BME280;71243;51.848;5.768;2023-07-13T05:06:46;101556.41;;;15.29;76.00
81812;BME280;71243;51.848;5.768;2023-07-13T05:09:11;101556.44;;;15.37;75.75
81812;BME280;71243;51.848;5.768;2023-07-13T05:11:36;101565.81;;;15.50;75.18
81812;BME280;71243;51.848;5.768;2023-07-13T05:14:02;101576.44;;;15.42;75.62
81812;BME280;71243;51.848;5.768;2023-07-13T05:16:27;101571.94;;;15.42;75.93
81812;BME280;71243;51.848;5.768;2023-07-13T05:18:53;101568.66;;;15.56;75.63
81812;BME280;71243;51.848;5.768;2023-07-13T05:21:18;101571.66;;;15.61;75.54
81812;BME280;71243;51.848;5.768;2023-07-13T05:23:44;101584.00;;;15.62;75.49
81812;BME280;71243;51.848;5.768;2023-07-13T05:26:09;101582.16;;;15.63;75.92
81812;BME280;71243;51.848;5.768;2023-07-13T05:28:35;101580.50;;;15.70;75.89
81812;BME280;71243;51.848;5.768;2023-07-13T05:31:00;101583.03;;;15.71;76.29
81812;BME280;71243;51.848;5.768;2023-07-13T05:33:26;101574.53;;;15.68;76.52
81812;BME280;71243;51.848;5.768;2023-07-13T05:35:51;101574.03;;;15.72;76.24
81812;BME280;71243;51.848;5.768;2023-07-13T05:38:16;101588.19;;;15.81;76.25
81812;BME280;71243;51.848;5.768;2023-07-13T05:40:43;101586.03;;;15.84;76.27
81812;BME280;71243;51.848;5.768;2023-07-13T05:43:08;101594.06;;;15.92;76.03
81812;BME280;71243;51.848;5.768;2023-07-13T05:45:33;101585.22;;;16.00;76.05
81812;BME280;71243;51.848;5.768;2023-07-13T05:47:59;101582.56;;;16.00;76.06
81812;BME280;71243;51.848;5.768;2023-07-13T05:50:25;101585.41;;;15.98;76.36
81812;BME280;71243;51.848;5.768;2023-07-13T05:52:51;101588.56;;;16.02;76.31
81812;BME280;71243;51.848;5.768;2023-07-13T05:55:16;101599.91;;;16.04;76.81
81812;BME280;71243;51.848;5.768;2023-07-13T05:57:41;101601.75;;;16.11;76.10
81812;BME280;71243;51.848;5.768;2023-07-13T06:00:07;101597.91;;;16.14;76.11
81812;BME280;71243;51.848;5.768;2023-07-13T06:02:32;101601.41;;;16.14;76.17
81812;BME280;71243;51.848;5.768;2023-07-13T06:04:57;101603.41;;;16.28;75.75
81812;BME280;71243;51.848;5.768;2023-07-13T06:07:23;101609.25;;;16.32;76.01
81812;BME280;71243;51.848;5.768;2023-07-13T06:09:48;101613.59;;;16.41;75.65
81812;BME280;71243;51.848;5.768;2023-07-13T06:12:13;101608.75;;;16.44;75.88
81812;BME280;71243;51.848;5.768;2023-07-13T06:14:38;101613.78;;;16.56;75.82
81812;BME280;71243;51.848;5.768;2023-07-13T06:17:04;101605.59;;;16.65;75.59
81812;BME280;71243;51.848;5.768;2023-07-13T06:19:29;101614.41;;;16.74;75.29
81812;BME280;71243;51.848;5.768;2023-07-13T06:21:55;101608.53;;;16.86;74.87
81812;BME280;71243;51.848;5.768;2023-07-13T06:24:20;101609.88;;;16.90;74.69
81812;BME280;71243;51.848;5.768;2023-07-13T06:26:45;101615.53;;;17.03;74.78
81812;BME280;71243;51.848;5.768;2023-07-13T06:29:11;101624.84;;;17.15;73.98
81812;BME280;71243;51.848;5.768;2023-07-13T06:31:36;101620.31;;;17.24;73.59
81812;BME280;71243;51.848;5.768;2023-07-13T06:34:01;101619.28;;;17.33;73.23
81812;BME280;71243;51.848;5.768;2023-07-13T06:36:26;101617.38;;;17.41;72.96
81812;BME280;71243;51.848;5.768;2023-07-13T06:38:52;101619.88;;;17.43;72.68
81812;BME280;71243;51.848;5.768;2023-07-13T06:41:17;101627.53;;;17.46;72.77
81812;BME280;71243;51.848;5.768;2023-07-13T06:43:42;101624.91;;;17.38;73.27
81812;BME280;71243;51.848;5.768;2023-07-13T06:46:08;101634.28;;;17.34;73.47
81812;BME280;71243;51.848;5.768;2023-07-13T06:48:33;101632.28;;;17.36;73.75
81812;BME280;71243;51.848;5.768;2023-07-13T06:50:58;101628.06;;;17.41;72.83
81812;BME280;71243;51.848;5.768;2023-07-13T06:53:24;101635.28;;;17.49;72.54
81812;BME280;71243;51.848;5.768;2023-07-13T06:55:49;101645.59;;;17.52;72.26
81812;BME280;71243;51.848;5.768;2023-07-13T06:58:16;101641.41;;;17.58;72.04
81812;BME280;71243;51.848;5.768;2023-07-13T07:00:41;101634.91;;;17.52;72.61
81812;BME280;71243;51.848;5.768;2023-07-13T07:03:07;101642.56;;;17.63;72.34
81812;BME280;71243;51.848;5.768;2023-07-13T07:05:32;101637.22;;;17.63;72.49
81812;BME280;71243;51.848;5.768;2023-07-13T07:07:58;101639.16;;;17.69;72.36
81812;BME280;71243;51.848;5.768;2023-07-13T07:10:23;101639.66;;;17.73;71.57
81812;BME280;71243;51.848;5.768;2023-07-13T07:12:49;101641.75;;;17.85;71.55
81812;BME280;71243;51.848;5.768;2023-07-13T07:15:14;101641.06;;;17.91;71.44
81812;BME280;71243;51.848;5.768;2023-07-13T07:17:40;101639.34;;;17.98;71.29
81812;BME280;71243;51.848;5.768;2023-07-13T07:20:05;101640.97;;;18.07;70.89
81812;BME280;71243;51.848;5.768;2023-07-13T07:22:31;101639.81;;;18.02;70.73
81812;BME280;71243;51.848;5.768;2023-07-13T07:24:57;101648.84;;;18.01;70.77
81812;BME280;71243;51.848;5.768;2023-07-13T07:27:23;101647.84;;;18.02;70.90
81812;BME280;71243;51.848;5.768;2023-07-13T07:29:48;101647.19;;;18.00;70.90
81812;BME280;71243;51.848;5.768;2023-07-13T07:32:14;101646.59;;;18.12;70.94
81812;BME280;71243;51.848;5.768;2023-07-13T07:34:39;101650.72;;;18.23;70.17
81812;BME280;71243;51.848;5.768;2023-07-13T07:37:05;101645.53;;;18.21;70.31
81812;BME280;71243;51.848;5.768;2023-07-13T07:39:30;101649.94;;;18.37;70.01
81812;BME280;71243;51.848;5.768;2023-07-13T07:41:55;101650.13;;;18.35;69.60
81812;BME280;71243;51.848;5.768;2023-07-13T07:44:21;101647.88;;;18.47;69.32
81812;BME280;71243;51.848;5.768;2023-07-13T07:46:46;101655.53;;;18.50;69.44
81812;BME280;71243;51.848;5.768;2023-07-13T07:49:12;101645.06;;;18.63;69.50
81812;BME280;71243;51.848;5.768;2023-07-13T07:51:37;101652.91;;;18.65;68.77
81812;BME280;71243;51.848;5.768;2023-07-13T07:54:04;101653.00;;;18.71;68.51
81812;BME280;71243;51.848;5.768;2023-07-13T07:56:29;101654.16;;;18.91;68.49
81812;BME280;71243;51.848;5.768;2023-07-13T07:58:55;101648.63;;;18.93;67.31
81812;BME280;71243;51.848;5.768;2023-07-13T08:01:21;101650.38;;;18.86;67.58
81812;BME280;71243;51.848;5.768;2023-07-13T08:03:46;101648.31;;;18.73;67.94
81812;BME280;71243;51.848;5.768;2023-07-13T08:06:11;101653.66;;;18.73;68.32
81812;BME280;71243;51.848;5.768;2023-07-13T08:08:37;101651.06;;;18.80;68.82
81812;BME280;71243;51.848;5.768;2023-07-13T08:11:04;101653.50;;;18.89;68.03
81812;BME280;71243;51.848;5.768;2023-07-13T08:13:29;101645.03;;;19.00;67.64
81812;BME280;71243;51.848;5.768;2023-07-13T08:15:54;101648.19;;;19.04;66.99
81812;BME280;71243;51.848;5.768;2023-07-13T08:18:20;101646.31;;;19.04;66.59
81812;BME280;71243;51.848;5.768;2023-07-13T08:20:45;101644.47;;;19.05;66.40
81812;BME280;71243;51.848;5.768;2023-07-13T08:23:10;101639.03;;;19.13;66.69
81812;BME280;71243;51.848;5.768;2023-07-13T08:25:35;101642.34;;;19.15;66.40
81812;BME280;71243;51.848;5.768;2023-07-13T08:28:05;101649.00;;;19.19;65.69
81812;BME280;71243;51.848;5.768;2023-07-13T08:30:30;101647.91;;;19.28;64.88
81812;BME280;71243;51.848;5.768;2023-07-13T08:32:55;101648.34;;;19.17;65.54
81812;BME280;71243;51.848;5.768;2023-07-13T08:35:21;101650.84;;;19.18;65.93
81812;BME280;71243;51.848;5.768;2023-07-13T08:37:46;101658.34;;;19.23;65.34
81812;BME280;71243;51.848;5.768;2023-07-13T08:40:12;101653.47;;;19.41;64.52
81812;BME280;71243;51.848;5.768;2023-07-13T08:42:50;101660.97;;;19.45;64.50
81812;BME280;71243;51.848;5.768;2023-07-13T08:48:03;101653.34;;;19.78;63.74
81812;BME280;71243;51.848;5.768;2023-07-13T08:50:33;101652.13;;;19.81;63.11
81812;BME280;71243;51.848;5.768;2023-07-13T08:53:02;101655.72;;;19.88;60.92
81812;BME280;71243;51.848;5.768;2023-07-13T08:55:34;101645.13;;;20.01;60.18
81812;BME280;71243;51.848;5.768;2023-07-13T08:58:10;101643.31;;;20.22;59.51
81812;BME280;71243;51.848;5.768;2023-07-13T09:00:56;101647.03;;;20.42;59.36
81812;BME280;71243;51.848;5.768;2023-07-13T09:03:27;101638.00;;;20.50;57.98
81812;BME280;71243;51.848;5.768;2023-07-13T09:05:58;101648.22;;;20.40;57.39
81812;BME280;71243;51.848;5.768;2023-07-13T09:08:56;101646.13;;;20.35;57.27
81812;BME280;71243;51.848;5.768;2023-07-13T09:11:36;101651.50;;;20.35;58.10
81812;BME280;71243;51.848;5.768;2023-07-13T09:16:42;101651.81;;;20.68;57.48
81812;BME280;71243;51.848;5.768;2023-07-13T09:19:12;101652.78;;;20.88;57.07
81812;BME280;71243;51.848;5.768;2023-07-13T09:21:42;101652.22;;;20.93;57.20
81812;BME280;71243;51.848;5.768;2023-07-13T09:26:48;101654.50;;;20.96;57.13
81812;BME280;71243;51.848;5.768;2023-07-13T09:29:26;101671.31;;;20.77;60.28
81812;BME280;71243;51.848;5.768;2023-07-13T09:31:54;101675.53;;;20.64;62.99
81812;BME280;71243;51.848;5.768;2023-07-13T09:34:20;101674.56;;;20.51;65.09
81812;BME280;71243;51.848;5.768;2023-07-13T09:36:45;101677.19;;;20.23;69.44
81812;BME280;71243;51.848;5.768;2023-07-13T09:39:37;101677.91;;;20.32;69.89
81812;BME280;71243;51.848;5.768;2023-07-13T09:42:16;101675.22;;;20.53;69.86
81812;BME280;71243;51.848;5.768;2023-07-13T09:44:52;101671.81;;;20.65;67.71
81812;BME280;71243;51.848;5.768;2023-07-13T09:47:23;101665.56;;;20.86;68.34
81812;BME280;71243;51.848;5.768;2023-07-13T09:49:55;101670.19;;;20.92;68.94
81812;BME280;71243;51.848;5.768;2023-07-13T09:52:20;101671.94;;;21.00;68.43
81812;BME280;71243;51.848;5.768;2023-07-13T09:54:49;101673.78;;;20.99;66.80
81812;BME280;71243;51.848;5.768;2023-07-13T09:57:16;101675.97;;;21.17;67.22
81812;BME280;71243;51.848;5.768;2023-07-13T09:59:49;101665.19;;;21.10;63.68
81812;BME280;71243;51.848;5.768;2023-07-13T10:02:34;101681.16;;;20.97;61.92
81812;BME280;71243;51.848;5.768;2023-07-13T10:05:03;101687.38;;;20.98;64.49
81812;BME280;71243;51.848;5.768;2023-07-13T10:07:30;101696.19;;;20.64;65.85
81812;BME280;71243;51.848;5.768;2023-07-13T10:09:58;101688.00;;;20.51;65.82
81812;BME280;71243;51.848;5.768;2023-07-13T10:12:24;101692.06;;;20.47;nan
81812;BME280;71243;51.848;5.768;2023-07-13T10:15:00;101692.72;;;20.49;68.67
81812;BME280;71243;51.848;5.768;2023-07-13T10:17:29;101694.06;;;20.38;66.67
81812;BME280;71243;51.848;5.768;2023-07-13T10:19:57;101690.75;;;20.36;66.84
81812;BME280;71243;51.848;5.768;2023-07-13T10:22:27;101689.69;;;20.52;69.30
81812;BME280;71243;51.848;5.768;2023-07-13T10:24:55;101690.28;;;20.54;67.75
81812;BME280;71243;51.848;5.768;2023-07-13T10:27:32;101689.53;;;20.60;68.62
81812;BME280;71243;51.848;5.768;2023-07-13T10:30:09;101688.50;;;20.82;69.38
81812;BME280;71243;51.848;5.768;2023-07-13T10:32:37;101683.25;;;20.74;66.86
81812;BME280;71243;51.848;5.768;2023-07-13T10:35:03;101680.47;;;20.61;65.86
81812;BME280;71243;51.848;5.768;2023-07-13T10:37:31;101690.94;;;20.56;64.78
81812;BME280;71243;51.848;5.768;2023-07-13T10:40:00;101692.63;;;20.57;65.80
81812;BME280;71243;51.848;5.768;2023-07-13T10:42:32;101689.38;;;20.26;65.67
81812;BME280;71243;51.848;5.768;2023-07-13T10:44:58;101686.59;;;20.34;63.99
81812;BME280;71243;51.848;5.768;2023-07-13T10:47:24;101693.97;;;20.46;66.15
81812;BME280;71243;51.848;5.768;2023-07-13T10:49:53;101703.16;;;20.58;66.49
81812;BME280;71243;51.848;5.768;2023-07-13T10:52:46;101711.34;;;20.71;65.87
81812;BME280;71243;51.848;5.768;2023-07-13T11:01:17;101737.63;;;20.55;60.41
81812;BME280;71243;51.848;5.768;2023-07-13T11:03:56;101734.31;;;20.17;64.05
81812;BME280;71243;51.848;5.768;2023-07-13T11:08:54;101739.25;;;19.70;67.84
81812;BME280;71243;51.848;5.768;2023-07-13T11:11:40;101741.19;;;19.47;69.49
81812;BME280;71243;51.848;5.768;2023-07-13T11:14:29;101733.91;;;19.18;71.15
81812;BME280;71243;51.848;5.768;2023-07-13T11:16:54;101743.25;;;19.22;70.94
81812;BME280;71243;51.848;5.768;2023-07-13T11:29:50;101733.47;;;19.29;72.15
81812;BME280;71243;51.848;5.768;2023-07-13T11:32:25;101738.97;;;19.50;70.98
81812;BME280;71243;51.848;5.768;2023-07-13T11:34:54;101725.84;;;19.55;68.73
81812;BME280;71243;51.848;5.768;2023-07-13T11:37:21;101738.72;;;19.60;68.97
81812;BME280;71243;51.848;5.768;2023-07-13T11:39:49;101728.16;;;19.73;67.61
81812;BME280;71243;51.848;5.768;2023-07-13T11:42:17;101739.72;;;19.88;68.11
81812;BME280;71243;51.848;5.768;2023-07-13T11:44:46;101735.72;;;19.99;66.95
81812;BME280;71243;51.848;5.768;2023-07-13T11:47:18;101731.72;;;19.95;66.84
81812;BME280;71243;51.848;5.768;2023-07-13T11:49:48;101741.00;;;19.92;65.92
81812;BME280;71243;51.848;5.768;2023-07-13T11:52:19;101731.00;;;20.01;65.20
81812;BME280;71243;51.848;5.768;2023-07-13T11:54:49;101728.13;;;19.88;66.08
81812;BME280;71243;51.848;5.768;2023-07-13T11:59:41;101735.03;;;20.47;64.94
81812;BME280;71243;51.848;5.768;2023-07-13T12:02:14;101739.66;;;20.53;64.20
81812;BME280;71243;51.848;5.768;2023-07-13T12:04:42;101734.88;;;20.69;63.69
81812;BME280;71243;51.848;5.768;2023-07-13T12:07:15;101726.69;;;20.99;63.29
81812;BME280;71243;51.848;5.768;2023-07-13T12:09:41;101723.47;;;21.10;62.08
81812;BME280;71243;51.848;5.768;2023-07-13T12:12:11;101716.28;;;21.17;61.74
81812;BME280;71243;51.848;5.768;2023-07-13T12:14:37;101706.91;;;20.85;63.51
81812;BME280;71243;51.848;5.768;2023-07-13T12:17:07;101711.91;;;20.67;63.74
81812;BME280;71243;51.848;5.768;2023-07-13T12:19:33;101711.59;;;20.77;64.34
81812;BME280;71243;51.848;5.768;2023-07-13T12:21:59;101704.47;;;20.90;63.33
81812;BME280;71243;51.848;5.768;2023-07-13T12:24:25;101708.63;;;21.14;63.33
81812;BME280;71243;51.848;5.768;2023-07-13T12:26:54;101719.88;;;21.30;62.35
81812;BME280;71243;51.848;5.768;2023-07-13T12:29:20;101717.44;;;21.35;61.48
81812;BME280;71243;51.848;5.768;2023-07-13T12:31:48;101718.91;;;21.38;61.91
81812;BME280;71243;51.848;5.768;2023-07-13T12:34:19;101713.69;;;21.70;60.47
81812;BME280;71243;51.848;5.768;2023-07-13T12:36:46;101707.66;;;22.03;57.30
81812;BME280;71243;51.848;5.768;2023-07-13T12:39:25;101704.41;;;22.20;52.96
81812;BME280;71243;51.848;5.768;2023-07-13T12:41:52;101705.66;;;22.24;52.05
81812;BME280;71243;51.848;5.768;2023-07-13T12:44:26;101709.63;;;22.41;50.05
81812;BME280;71243;51.848;5.768;2023-07-13T12:47:13;101709.31;;;22.70;49.51
81812;BME280;71243;51.848;5.768;2023-07-13T12:49:47;101702.88;;;22.91;49.08
81812;BME280;71243;51.848;5.768;2023-07-13T12:52:15;101708.88;;;23.00;47.43
81812;BME280;71243;51.848;5.768;2023-07-13T12:54:41;101703.09;;;22.90;47.10
81812;BME280;71243;51.848;5.768;2023-07-13T12:57:14;101701.84;;;22.85;48.31
81812;BME280;71243;51.848;5.768;2023-07-13T12:59:41;101697.06;;;22.94;48.54
81812;BME280;71243;51.848;5.768;2023-07-13T13:02:29;101705.34;;;23.12;47.91
81812;BME280;71243;51.848;5.768;2023-07-13T13:04:56;101699.53;;;23.35;47.54
81812;BME280;71243;51.848;5.768;2023-07-13T13:07:21;101704.03;;;23.54;46.37
81812;BME280;71243;51.848;5.768;2023-07-13T13:09:46;101694.06;;;23.61;44.93
81812;BME280;71243;51.848;5.768;2023-07-13T13:12:12;101694.47;;;23.58;45.16
81812;BME280;71243;51.848;5.768;2023-07-13T13:14:37;101705.03;;;23.66;45.13
81812;BME280;71243;51.848;5.768;2023-07-13T13:17:02;101708.59;;;23.60;44.78
81812;BME280;71243;51.848;5.768;2023-07-13T13:19:29;101702.94;;;23.68;44.85
81812;BME280;71243;51.848;5.768;2023-07-13T13:21:55;101702.97;;;23.61;43.54
81812;BME280;71243;51.848;5.768;2023-07-13T13:24:23;101699.25;;;23.56;44.88